Time;durP1;ratioP1;P1;durP2;ratioP2;P2;SDS_P1;SDS_P2;PMS_P1;PMS_P2;Temp;Humidity;BMP_temperature;BMP_pressure;BME280_temperature;BME280_humidity;BME280_pressure;Samples;Min_cycle;Max_cycle;Signal;HPM_P1;HPM_P2
2022/12/12 00:02:52;;;;;;;53.57;33.77;;;;;;;-4.64;100.00;100860.38;10284149;28;20495;-83
2022/12/12 00:07:53;;;;;;;59.03;35.17;;;;;;;-4.74;100.00;100865.22;10284305;28;20118;-83
2022/12/12 00:12:53;;;;;;;54.93;34.27;;;;;;;-4.76;100.00;100867.59;10284281;28;20045;-83
2022/12/12 00:17:55;;;;;;;40.03;25.07;;;;;;;-4.82;100.00;100866.94;10282865;28;20035;-83
2022/12/12 00:22:56;;;;;;;53.53;31.83;;;;;;;-4.89;100.00;100877.22;10285035;28;20047;-83
2022/12/12 00:27:56;;;;;;;56.70;34.50;;;;;;;-4.93;100.00;100880.19;10280866;28;20085;-83
2022/12/12 00:32:57;;;;;;;46.50;25.37;;;;;;;-4.91;100.00;100881.25;10283393;28;20031;-83
2022/12/12 00:37:57;;;;;;;60.07;37.77;;;;;;;-5.03;100.00;100876.63;10282809;28;20137;-83
2022/12/12 00:42:58;;;;;;;62.23;40.23;;;;;;;-5.09;100.00;100881.06;10283783;28;20475;-82
2022/12/12 00:47:58;;;;;;;52.90;31.73;;;;;;;-5.05;100.00;100883.22;10280315;28;20632;-82
2022/12/12 00:52:59;;;;;;;67.80;36.47;;;;;;;-5.11;100.00;100879.97;10281112;28;20097;-82
2022/12/12 00:57:59;;;;;;;55.60;32.27;;;;;;;-5.19;100.00;100880.78;10282121;28;20147;-82
2022/12/12 01:03:00;;;;;;;69.60;35.50;;;;;;;-5.30;100.00;100879.63;10269387;28;20058;-83
2022/12/12 01:08:00;;;;;;;58.50;35.20;;;;;;;-5.37;100.00;100885.66;10254462;28;20102;-83
2022/12/12 01:13:01;;;;;;;51.73;33.60;;;;;;;-5.37;100.00;100897.53;10280186;28;20046;-83
2022/12/12 01:18:02;;;;;;;60.17;36.07;;;;;;;-5.45;100.00;100899.22;10281952;28;20038;-82
2022/12/12 01:23:02;;;;;;;65.13;37.77;;;;;;;-5.50;100.00;100908.00;10279701;28;20562;-82
2022/12/12 01:28:03;;;;;;;62.63;37.43;;;;;;;-5.55;100.00;100909.13;10279712;28;20543;-82
2022/12/12 01:33:04;;;;;;;45.67;31.27;;;;;;;-5.69;100.00;100913.56;10279821;28;20030;-82
2022/12/12 01:38:04;;;;;;;63.47;33.20;;;;;;;-5.69;100.00;100933.09;10278954;28;20282;-82
2022/12/12 01:43:11;;;;;;;54.40;33.13;;;;;;;-5.65;100.00;100925.03;10279399;28;20047;-81
2022/12/12 01:48:12;;;;;;;65.70;38.50;;;;;;;-5.64;100.00;100925.19;10278293;28;20495;-82
2022/12/12 01:53:12;;;;;;;72.83;37.27;;;;;;;-5.65;100.00;100937.78;10280352;28;20121;-81
2022/12/12 01:58:13;;;;;;;66.13;37.60;;;;;;;-5.65;100.00;100940.34;10277591;28;20035;-81
2022/12/12 02:03:13;;;;;;;66.07;37.30;;;;;;;-5.61;100.00;100934.84;10277038;28;20080;-81
2022/12/12 02:08:14;;;;;;;56.60;32.73;;;;;;;-5.70;100.00;100931.28;10281626;28;20482;-81
2022/12/12 02:13:17;;;;;;;64.97;33.33;;;;;;;-5.87;100.00;100939.53;10277777;28;20562;-81
2022/12/12 02:18:41;;;;;;;62.38;35.92;;;;;;;-5.89;100.00;100936.84;10280059;28;20126;-81
2022/12/12 02:24:04;;;;;;;60.40;32.80;;;;;;;-5.94;100.00;100936.28;10278557;28;20051;-81
2022/12/12 02:29:26;;;;;;;60.35;34.83;;;;;;;-6.02;100.00;100929.44;10284301;28;20047;-82
2022/12/12 02:34:39;;;;;;;70.57;35.88;;;;;;;-6.12;100.00;100940.25;10282590;28;20068;-82
2022/12/12 02:39:46;;;;;;;62.08;37.78;;;;;;;-6.13;100.00;100940.97;10317051;28;20046;-82
2022/12/12 02:45:01;;;;;;;61.78;34.00;;;;;;;-6.25;100.00;100937.91;10290378;28;20047;-82
2022/12/12 02:50:01;;;;;;;60.15;36.72;;;;;;;-6.21;100.00;100937.53;10255249;28;20039;-81
2022/12/12 02:55:03;;;;;;;62.13;36.07;;;;;;;-6.26;100.00;100935.19;10242606;28;20051;-82
2022/12/12 03:00:09;;;;;;;53.53;32.25;;;;;;;-6.29;100.00;100934.84;10258791;28;20050;-82
2022/12/12 03:10:49;;;;;;;53.35;33.83;;;;;;;-6.43;100.00;100938.31;10242767;28;20035;-82
2022/12/12 03:16:12;;;;;;;52.97;33.75;;;;;;;-6.52;100.00;100941.63;10319244;28;20121;-82
2022/12/12 03:21:20;;;;;;;57.33;32.15;;;;;;;-6.55;100.00;100931.06;10287230;28;20039;-81
2022/12/12 03:26:44;;;;;;;67.03;35.28;;;;;;;-6.50;100.00;100937.59;10286875;28;20065;-81
2022/12/12 03:31:46;;;;;;;58.67;35.83;;;;;;;-6.52;100.00;100930.53;10277375;28;20047;-81
2022/12/12 03:37:00;;;;;;;54.42;33.55;;;;;;;-6.56;100.00;100931.81;10285544;28;20096;-81
2022/12/12 03:42:09;;;;;;;59.78;34.25;;;;;;;-6.62;100.00;100935.28;10268303;28;20035;-81
2022/12/12 03:47:12;;;;;;;51.95;34.10;;;;;;;-6.72;100.00;100930.75;10287394;28;20126;-81
2022/12/12 03:52:29;;;;;;;58.45;31.42;;;;;;;-6.86;100.00;100934.22;10267511;28;20121;-81
2022/12/12 03:57:52;;;;;;;55.53;34.42;;;;;;;-6.78;100.00;100933.50;10283063;28;20118;-81
2022/12/12 04:02:55;;;;;;;49.92;31.25;;;;;;;-6.84;100.00;100938.75;10309899;28;20051;-80
2022/12/12 04:07:58;;;;;;;52.67;31.35;;;;;;;-6.72;100.00;100951.13;10266753;28;20042;-80
2022/12/12 04:13:22;;;;;;;59.70;32.50;;;;;;;-6.65;100.00;100946.00;10276951;28;20129;-80
2022/12/12 04:18:49;;;;;;;53.35;32.92;;;;;;;-6.78;100.00;100947.13;10322605;28;20177;-80
2022/12/12 04:23:53;;;;;;;69.85;32.30;;;;;;;-6.94;100.00;100948.59;10305198;28;20039;-80
2022/12/12 04:28:58;;;;;;;56.80;31.90;;;;;;;-7.04;100.00;100961.88;10281827;28;20425;-80
2022/12/12 04:34:03;;;;;;;55.40;32.97;;;;;;;-7.13;100.00;100961.66;10283812;28;20502;-80
2022/12/12 04:39:03;;;;;;;52.13;30.55;;;;;;;-7.09;100.00;100971.47;10265690;28;20656;-80
2022/12/12 04:44:04;;;;;;;66.67;31.50;;;;;;;-7.06;100.00;100977.66;10280660;28;20043;-80
2022/12/12 04:49:07;;;;;;;54.67;32.50;;;;;;;-6.97;100.00;100976.22;10266353;28;20042;-80
2022/12/12 04:54:18;;;;;;;49.92;30.73;;;;;;;-6.97;100.00;100969.50;10265204;28;20042;-80
2022/12/12 04:59:19;;;;;;;62.25;33.10;;;;;;;-6.93;100.00;100970.75;10307367;28;20130;-81
2022/12/12 05:04:50;;;;;;;50.40;30.63;;;;;;;-6.95;100.00;100973.13;10281513;28;20487;-81
2022/12/12 05:09:50;;;;;;;58.55;31.20;;;;;;;-6.99;100.00;100980.22;10268667;28;20043;-80
2022/12/12 05:14:51;;;;;;;48.23;28.67;;;;;;;-7.02;100.00;100980.78;10261329;28;20500;-80
2022/12/12 05:19:51;;;;;;;45.37;29.70;;;;;;;-6.98;100.00;100982.03;10281118;28;20049;-85
2022/12/12 05:24:52;;;;;;;39.70;22.50;;;;;;;-7.01;100.00;100974.97;10266588;28;20113;-86
2022/12/12 05:29:53;;;;;;;46.37;26.40;;;;;;;-7.09;100.00;100971.47;10280540;28;20524;-85
2022/12/12 05:34:54;;;;;;;55.90;26.67;;;;;;;-7.19;100.00;100968.56;10262803;28;20043;-85
2022/12/12 05:39:54;;;;;;;54.37;28.37;;;;;;;-7.20;100.00;100970.94;10262383;28;20114;-83
2022/12/12 05:44:54;;;;;;;45.70;30.80;;;;;;;-7.26;100.00;100968.56;10277007;28;20477;-82
2022/12/12 05:49:55;;;;;;;54.00;28.70;;;;;;;-7.35;100.00;100972.53;10278375;28;20053;-80
2022/12/12 05:54:55;;;;;;;45.80;27.93;;;;;;;-7.45;100.00;100968.00;10279511;28;20443;-81
2022/12/12 05:59:56;;;;;;;39.10;27.90;;;;;;;-7.51;100.00;100965.63;10278697;28;20062;-81
2022/12/12 06:04:57;;;;;;;50.17;30.00;;;;;;;-7.52;100.00;100984.13;10279013;28;20041;-79
2022/12/12 06:09:58;;;;;;;52.57;31.83;;;;;;;-7.61;100.00;100991.56;10269002;28;20349;-80
2022/12/12 06:14:58;;;;;;;56.20;29.23;;;;;;;-7.72;100.00;100987.72;10264650;28;20063;-81
2022/12/12 06:19:59;;;;;;;46.57;28.50;;;;;;;-7.83;100.00;100990.56;10278670;28;20067;-80
2022/12/12 06:24:59;;;;;;;51.40;28.73;;;;;;;-7.66;100.00;101007.91;10277651;28;20539;-81
2022/12/12 06:30:00;;;;;;;49.40;27.67;;;;;;;-7.46;100.00;101009.41;10238349;28;20175;-80
2022/12/12 06:35:00;;;;;;;53.93;30.67;;;;;;;-7.55;100.00;101016.81;10269212;28;20042;-80
2022/12/12 06:40:01;;;;;;;52.77;29.73;;;;;;;-7.60;100.00;101020.44;10266975;28;20050;-80
2022/12/12 06:45:02;;;;;;;46.23;26.33;;;;;;;-7.67;100.00;101018.78;10238172;28;20543;-80
2022/12/12 06:50:03;;;;;;;53.97;28.67;;;;;;;-7.72;100.00;101015.66;10252824;28;20294;-80
2022/12/12 06:55:04;;;;;;;52.03;29.77;;;;;;;-7.70;100.00;101019.31;10275388;28;20046;-80
2022/12/12 07:00:05;;;;;;;48.03;27.57;;;;;;;-7.69;100.00;101027.88;10276380;28;20039;-78
2022/12/12 07:05:06;;;;;;;51.22;29.05;;;;;;;-7.72;100.00;101035.13;10257701;28;20053;-82
2022/12/12 07:10:07;;;;;;;53.30;28.60;;;;;;;-7.73;100.00;101041.81;10278471;28;20439;-79
2022/12/12 07:15:08;;;;;;;61.07;31.23;;;;;;;-7.72;100.00;101041.09;10259114;28;20043;-80
2022/12/12 07:20:09;;;;;;;37.55;21.00;;;;;;;-7.76;100.00;101048.16;10277054;28;20051;-82
2022/12/12 07:25:09;;;;;;;60.53;27.60;;;;;;;-7.80;100.00;101044.31;10279986;28;20121;-83
2022/12/12 07:30:11;;;;;;;52.30;27.10;;;;;;;-7.84;100.00;101048.13;10250620;28;20047;-79
2022/12/12 07:35:12;;;;;;;53.73;27.77;;;;;;;-7.84;100.00;101044.66;10238469;28;20094;-79
2022/12/12 07:40:13;;;;;;;53.27;31.03;;;;;;;-7.86;100.00;101052.13;10267898;28;20147;-79
2022/12/12 07:45:13;;;;;;;46.27;26.90;;;;;;;-7.87;100.00;101055.38;10267318;28;20059;-79
2022/12/12 07:50:14;;;;;;;44.10;26.43;;;;;;;-7.89;100.00;101063.50;10259209;28;20057;-79
2022/12/12 07:55:14;;;;;;;51.83;27.60;;;;;;;-7.79;100.00;101051.22;10260905;28;20134;-78
2022/12/12 08:00:16;;;;;;;53.93;31.27;;;;;;;-7.68;100.00;101056.00;10257755;28;20397;-78
2022/12/12 08:05:16;;;;;;;49.83;28.92;;;;;;;-7.59;100.00;101060.38;10252883;28;20138;-79
2022/12/12 08:10:17;;;;;;;33.77;19.50;;;;;;;-7.62;100.00;101068.56;10271949;28;20038;-79
2022/12/12 08:15:18;;;;;;;62.47;27.83;;;;;;;-7.59;100.00;101071.47;10258241;28;20066;-80
2022/12/12 08:20:18;;;;;;;54.07;29.43;;;;;;;-7.58;100.00;101080.94;10281222;28;20142;-79
2022/12/12 08:25:19;;;;;;;54.27;30.20;;;;;;;-7.53;100.00;101073.84;10277310;28;20072;-80
2022/12/12 08:30:19;;;;;;;42.60;26.67;;;;;;;-7.50;100.00;101084.41;10321575;28;20729;-80
2022/12/12 08:35:22;;;;;;;53.85;30.00;;;;;;;-7.45;100.00;101070.59;10324376;28;20057;-80
2022/12/12 08:40:23;;;;;;;46.17;27.98;;;;;;;-7.36;100.00;101086.09;10266368;28;20046;-81
2022/12/12 08:45:23;;;;;;;44.87;23.73;;;;;;;-7.26;100.00;101094.13;10284403;28;20037;-81
2022/12/12 08:50:24;;;;;;;46.07;23.90;;;;;;;-7.17;100.00;101099.41;10282230;28;20491;-81
2022/12/12 08:55:24;;;;;;;40.33;23.77;;;;;;;-7.10;100.00;101101.06;10279221;28;20126;-81
2022/12/12 09:00:25;;;;;;;44.33;25.27;;;;;;;-7.01;100.00;101099.66;10280610;28;20043;-81
2022/12/12 09:05:25;;;;;;;49.43;27.13;;;;;;;-6.88;100.00;101102.03;10265127;28;20517;-81
2022/12/12 09:10:26;;;;;;;46.70;28.77;;;;;;;-6.68;100.00;101103.50;10264557;28;20046;-81
2022/12/12 09:15:27;;;;;;;44.28;23.67;;;;;;;-6.52;100.00;101114.78;10280902;28;20039;-82
2022/12/12 09:20:27;;;;;;;38.43;24.50;;;;;;;-6.37;100.00;101118.28;10281747;28;20093;-82
2022/12/12 09:25:28;;;;;;;51.50;28.63;;;;;;;-6.22;100.00;101116.63;10279401;28;20039;-81
2022/12/12 09:30:28;;;;;;;40.77;25.60;;;;;;;-5.97;100.00;101122.00;10281835;28;20058;-81
2022/12/12 09:35:29;;;;;;;47.93;26.77;;;;;;;-5.79;100.00;101118.16;10279592;28;20448;-82
2022/12/12 09:40:57;;;;;;;42.93;27.33;;;;;;;-5.53;100.00;101127.00;10277968;28;20053;-80
2022/12/12 09:45:58;;;;;;;51.30;30.40;;;;;;;-5.14;100.00;101131.44;10281070;28;20130;-81
2022/12/12 09:50:58;;;;;;;46.87;28.53;;;;;;;-4.12;100.00;101119.78;10262371;28;20093;-80
2022/12/12 09:56:20;;;;;;;49.00;28.83;;;;;;;-1.79;100.00;101114.19;10252376;28;20125;-79
2022/12/12 10:01:33;;;;;;;42.95;22.10;;;;;;;0.56;100.00;101109.09;10236982;28;20158;-81
2022/12/12 10:06:40;;;;;;;29.77;18.95;;;;;;;0.23;100.00;101079.47;10291904;28;20050;-82
2022/12/12 10:11:49;;;;;;;33.75;21.42;;;;;;;-0.40;100.00;101060.75;10261469;28;20533;-83
2022/12/12 10:16:50;;;;;;;25.58;16.70;;;;;;;-0.22;100.00;101054.78;10360717;28;20125;-80
2022/12/12 10:21:51;;;;;;;26.20;17.05;;;;;;;0.72;100.00;101043.50;10302328;28;20517;-85
2022/12/12 10:26:51;;;;;;;50.08;19.02;;;;;;;1.20;92.66;101041.69;10244360;28;20051;-81
2022/12/12 10:32:01;;;;;;;32.30;16.73;;;;;;;1.92;88.85;101046.13;10275049;28;20051;-82
2022/12/12 10:37:16;;;;;;;24.55;14.68;;;;;;;2.08;85.03;101044.06;10278500;28;20495;-89
2022/12/12 10:42:19;;;;;;;26.52;13.75;;;;;;;2.22;82.95;101039.16;10302585;28;20047;-88
2022/12/12 10:47:19;;;;;;;20.13;14.43;;;;;;;3.13;76.13;101030.19;10280025;28;20506;-80
2022/12/12 10:52:21;;;;;;;22.40;12.98;;;;;;;3.23;73.37;101031.03;10277848;28;20134;-80
2022/12/12 10:57:23;;;;;;;19.13;10.03;;;;;;;2.56;71.17;101022.19;10276863;28;20042;-81
2022/12/12 11:02:39;;;;;;;24.48;12.95;;;;;;;2.08;77.33;101036.34;10278384;28;20137;-84
2022/12/12 11:07:43;;;;;;;21.80;12.30;;;;;;;2.06;75.14;101037.88;10277963;28;20090;-83
2022/12/12 11:12:43;;;;;;;27.50;14.45;;;;;;;0.81;79.99;101033.13;10275070;28;20050;-81
2022/12/12 11:17:44;;;;;;;27.00;15.68;;;;;;;1.51;81.60;101039.19;10278329;28;20069;-80
2022/12/12 11:22:45;;;;;;;26.52;13.57;;;;;;;3.16;73.40;101023.56;10275830;28;20063;-86
2022/12/12 11:27:46;;;;;;;22.95;12.45;;;;;;;2.44;73.63;101011.75;10260078;28;20126;-84
2022/12/12 11:32:47;;;;;;;27.02;13.45;;;;;;;2.07;75.96;101021.59;10274346;28;20074;-83
2022/12/12 11:37:49;;;;;;;21.38;13.27;;;;;;;1.39;76.60;101015.84;10258750;28;20537;-83
2022/12/12 11:42:49;;;;;;;;;;;;;;;3.08;75.63;101003.94;10252717;28;20149;-83
2022/12/12 11:47:50;;;;;;;21.65;11.43;;;;;;;3.51;69.68;100996.09;10285192;28;20289;-83
2022/12/12 11:52:54;;;;;;;19.77;12.15;;;;;;;3.48;71.61;100993.25;10282155;28;20126;-83
2022/12/12 11:58:25;;;;;;;16.73;10.20;;;;;;;3.18;69.22;100996.13;10284275;28;20034;-84
2022/12/12 12:03:41;;;;;;;17.83;11.10;;;;;;;3.78;69.02;100992.13;10280871;28;20395;-84
2022/12/12 12:08:44;;;;;;;24.35;12.80;;;;;;;4.54;68.17;100986.53;10323534;28;20054;-84
2022/12/12 12:14:10;;;;;;;21.98;11.60;;;;;;;5.89;59.00;100985.66;10285025;28;20035;-84
2022/12/12 12:19:29;;;;;;;19.73;9.63;;;;;;;4.84;60.60;100987.88;10266281;28;20050;-84
2022/12/12 12:24:36;;;;;;;17.02;10.68;;;;;;;3.99;61.93;100983.31;10284851;28;20039;-84
2022/12/12 12:29:45;;;;;;;18.73;10.40;;;;;;;2.57;65.56;100987.81;10283270;28;20039;-84
2022/12/12 12:35:03;;;;;;;18.40;10.43;;;;;;;1.73;73.27;100988.66;10279444;28;20042;-85
2022/12/12 12:40:22;;;;;;;18.63;9.90;;;;;;;1.26;71.78;100976.09;10284114;28;20031;-84
2022/12/12 12:45:41;;;;;;;18.60;10.75;;;;;;;0.76;76.99;100985.44;10297629;28;20036;-85
2022/12/12 12:51:07;;;;;;;18.90;11.77;;;;;;;1.08;80.50;100977.06;10322563;28;20039;-85
2022/12/12 12:56:23;;;;;;;21.90;10.82;;;;;;;2.20;79.99;100970.22;10313857;28;20112;-86
2022/12/12 13:01:43;;;;;;;21.05;12.32;;;;;;;3.27;71.14;100967.50;10283528;28;20043;-85
2022/12/12 13:06:49;;;;;;;20.77;11.68;;;;;;;2.96;67.60;100966.75;10283347;28;20042;-85
2022/12/12 13:11:52;;;;;;;18.73;11.65;;;;;;;2.27;71.02;100969.03;10278117;28;20085;-85
2022/12/12 13:16:52;;;;;;;18.50;9.95;;;;;;;2.66;71.40;100960.91;10264626;28;20052;-86
2022/12/12 13:22:00;;;;;;;21.85;13.32;;;;;;;2.23;69.63;100960.91;10280077;28;20462;-86
2022/12/12 13:27:18;;;;;;;15.35;9.45;;;;;;;2.49;72.36;100961.38;10262259;28;20042;-86
2022/12/12 13:33:06;;;;;;;17.38;8.82;;;;;;;3.07;68.24;100963.34;10299545;28;20460;-86
2022/12/12 13:38:23;;;;;;;17.10;9.93;;;;;;;3.18;68.17;100951.25;10275446;28;20053;-86
2022/12/12 13:43:32;;;;;;;13.52;8.07;;;;;;;2.98;68.20;100958.34;10280045;28;20399;-87
2022/12/12 13:48:36;;;;;;;14.25;8.38;;;;;;;3.22;66.94;100954.19;10278778;28;20057;-86
2022/12/12 13:53:37;;;;;;;20.88;9.98;;;;;;;2.60;67.62;100949.31;10277593;28;20499;-86
2022/12/12 13:58:37;;;;;;;17.10;9.45;;;;;;;1.46;72.12;100956.28;10278252;28;20101;-87
2022/12/12 14:03:38;;;;;;;21.13;10.35;;;;;;;0.83;76.95;100956.88;10278263;28;20138;-87
2022/12/12 14:08:46;;;;;;;18.25;11.25;;;;;;;0.51;79.38;100954.94;10261299;28;20035;-87
2022/12/12 14:13:49;;;;;;;15.55;9.38;;;;;;;-0.41;83.87;100962.09;10278389;28;20047;-86
2022/12/12 14:18:50;;;;;;;21.15;11.00;;;;;;;-1.48;88.35;100964.91;10259893;28;20392;-87
2022/12/12 14:23:51;;;;;;;18.48;11.77;;;;;;;-2.22;92.96;100968.78;10279304;28;20117;-87
2022/12/12 14:29:16;;;;;;;21.67;12.27;;;;;;;-2.80;97.33;100972.38;10276599;28;20120;-86
2022/12/12 14:34:23;;;;;;;16.52;12.18;;;;;;;-3.10;100.00;100983.84;10262937;28;20821;-85
2022/12/12 14:39:42;;;;;;;19.58;12.25;;;;;;;-3.37;100.00;100989.56;10279401;28;20406;-86
2022/12/12 14:44:43;;;;;;;17.83;12.90;;;;;;;-3.59;100.00;100985.63;10281074;28;20047;-86
2022/12/12 14:49:44;;;;;;;23.70;14.27;;;;;;;-3.89;100.00;100994.41;10259650;28;20562;-87
2022/12/12 14:54:44;;;;;;;19.30;12.73;;;;;;;-4.04;100.00;101003.91;10276097;28;20101;-86
2022/12/12 14:59:45;;;;;;;19.80;11.67;;;;;;;-4.25;100.00;100999.94;10275966;28;20138;-86
2022/12/12 15:04:51;;;;;;;15.33;11.73;;;;;;;-4.54;100.00;101005.31;10271847;28;20121;-86
2022/12/12 15:09:51;;;;;;;20.40;11.05;;;;;;;-4.71;100.00;101003.47;10265583;28;20066;-85
2022/12/12 15:14:54;;;;;;;20.10;13.33;;;;;;;-4.81;100.00;101005.75;10284362;28;20118;-86
2022/12/12 15:20:00;;;;;;;21.60;14.57;;;;;;;-4.85;100.00;101006.16;10290215;28;20039;-86
2022/12/12 15:25:21;;;;;;;23.65;15.77;;;;;;;-4.98;100.00;101006.41;10268275;28;20074;-85
2022/12/12 15:30:38;;;;;;;17.20;13.20;;;;;;;-5.10;100.00;101016.19;10246027;28;20059;-84
2022/12/12 15:35:38;;;;;;;21.98;12.98;;;;;;;-5.20;100.00;101016.78;10278510;28;20047;-84
2022/12/12 15:40:39;;;;;;;30.80;14.67;;;;;;;-5.28;100.00;101025.22;10281687;28;20035;-84
2022/12/12 15:45:54;;;;;;;28.83;16.20;;;;;;;-5.25;100.00;101025.56;10266755;28;20134;-84
2022/12/12 15:51:00;;;;;;;21.60;15.38;;;;;;;-5.37;100.00;101028.53;10283927;28;20066;-84
2022/12/12 15:56:01;;;;;;;29.48;15.63;;;;;;;-5.55;100.00;101029.94;10266462;28;20035;-85
2022/12/12 16:01:06;;;;;;;19.73;13.83;;;;;;;-5.60;100.00;101033.59;10274882;28;20104;-88
2022/12/12 16:06:16;;;;;;;27.30;12.80;;;;;;;-5.69;100.00;101042.72;10278595;28;20278;-89
2022/12/12 16:11:36;;;;;;;20.47;13.83;;;;;;;-5.64;100.00;101054.38;10313547;28;20050;-85
2022/12/12 16:16:44;;;;;;;22.92;14.18;;;;;;;-5.78;100.00;101056.25;10324406;28;20045;-90
2022/12/12 16:21:44;;;;;;;26.38;16.20;;;;;;;-5.93;100.00;101051.94;10276753;28;20046;-91
2022/12/12 16:26:45;;;;;;;24.73;15.30;;;;;;;-6.02;100.00;101056.00;10287803;28;20142;-91
2022/12/12 16:31:46;;;;;;;27.40;15.00;;;;;;;-6.01;100.00;101065.44;10289360;28;20039;-89
2022/12/12 16:36:46;;;;;;;20.70;13.73;;;;;;;-6.14;100.00;101047.81;10274805;28;20122;-91
2022/12/12 16:41:47;;;;;;;18.67;11.83;;;;;;;-6.30;100.00;101051.09;10282129;28;20170;-90
2022/12/12 16:46:47;;;;;;;22.90;12.43;;;;;;;-6.22;100.00;101049.47;10267823;28;20101;-91
2022/12/12 16:51:48;;;;;;;25.00;14.90;;;;;;;-6.25;100.00;101047.47;10271366;28;20126;-89
2022/12/12 16:56:51;;;;;;;19.50;12.87;;;;;;;-6.27;100.00;101046.38;10268852;28;20039;-83
2022/12/12 17:01:51;;;;;;;21.45;15.23;;;;;;;-6.39;100.00;101047.47;10282209;28;20455;-82
2022/12/12 17:06:52;;;;;;;25.27;14.67;;;;;;;-6.45;100.00;101055.31;10269342;28;20046;-81
2022/12/12 17:11:53;;;;;;;17.93;9.90;;;;;;;-6.52;100.00;101045.13;10258307;28;20058;-81
2022/12/12 17:16:54;;;;;;;21.20;13.33;;;;;;;-6.54;100.00;101050.03;10281084;28;20038;-83
2022/12/12 17:21:55;;;;;;;23.08;12.98;;;;;;;-6.55;100.00;101048.22;10281047;28;20034;-81
2022/12/12 17:26:57;;;;;;;25.57;15.67;;;;;;;-6.48;100.00;101049.88;10278488;28;20038;-80
2022/12/12 17:31:57;;;;;;;23.85;14.27;;;;;;;-6.53;100.00;101056.06;10276731;28;20053;-80
2022/12/12 17:36:58;;;;;;;25.00;14.33;;;;;;;-6.46;100.00;101050.03;10249238;28;20041;-81
2022/12/12 17:41:59;;;;;;;22.07;14.67;;;;;;;-6.52;100.00;101040.03;10283543;28;20047;-81
2022/12/12 17:46:59;;;;;;;21.03;14.67;;;;;;;-6.52;100.00;101040.94;10310994;28;20399;-83
2022/12/12 17:52:00;;;;;;;29.87;14.20;;;;;;;-6.56;100.00;101042.97;10309641;28;20559;-79
2022/12/12 17:57:05;;;;;;;22.80;15.15;;;;;;;-6.66;100.00;101041.88;10294405;28;20043;-82
2022/12/12 18:02:08;;;;;;;28.17;16.38;;;;;;;-6.62;100.00;101042.22;10311676;28;20050;-83
2022/12/12 18:07:09;;;;;;;25.90;14.90;;;;;;;-6.51;100.00;101058.03;10256003;28;20380;-83
2022/12/12 18:12:09;;;;;;;44.70;19.30;;;;;;;-6.62;100.00;101050.75;10277016;28;20158;-82
2022/12/12 18:17:11;;;;;;;;;;;;;;;-6.63;100.00;101043.84;10265539;28;20042;-83
2022/12/12 18:22:11;;;;;;;32.03;17.70;;;;;;;-6.51;100.00;101055.50;10279464;28;19929;-83
2022/12/12 18:27:12;;;;;;;34.70;17.20;;;;;;;-6.56;100.00;101045.50;10278649;28;20039;-83
2022/12/12 18:32:12;;;;;;;35.17;20.50;;;;;;;-6.76;100.00;101046.59;10276786;28;20055;-84
2022/12/12 18:37:13;;;;;;;32.27;16.03;;;;;;;-6.95;100.00;101043.47;10277084;28;20070;-81
2022/12/12 18:42:14;;;;;;;26.77;15.90;;;;;;;-6.84;100.00;101038.03;10276412;28;20058;-78
2022/12/12 18:47:15;;;;;;;29.77;17.53;;;;;;;-6.80;100.00;101036.78;10278911;28;20043;-86
2022/12/12 18:52:15;;;;;;;35.33;16.77;;;;;;;-7.08;100.00;101036.03;10277819;28;20059;-85
2022/12/12 18:57:16;;;;;;;31.67;16.33;;;;;;;-7.25;100.00;101040.00;10277818;28;20618;-84
2022/12/12 19:02:16;;;;;;;29.57;18.73;;;;;;;-7.38;100.00;101037.56;10278691;28;20067;-79
2022/12/12 19:07:17;;;;;;;24.00;15.77;;;;;;;-7.37;100.00;101041.03;10276939;28;20039;-85
2022/12/12 19:12:17;;;;;;;22.10;14.70;;;;;;;-7.46;100.00;101033.19;10275052;28;20127;-82
2022/12/12 19:17:18;;;;;;;24.57;15.67;;;;;;;-7.44;100.00;101041.03;10245006;28;20134;-79
2022/12/12 19:22:20;;;;;;;34.80;18.00;;;;;;;-7.50;100.00;101047.91;10275702;28;20133;-79
2022/12/12 19:27:20;;;;;;;27.45;18.52;;;;;;;-7.39;100.00;101052.66;10276835;28;20133;-78
2022/12/12 19:32:21;;;;;;;35.67;16.10;;;;;;;-7.34;100.00;101051.59;10274480;28;20131;-83
2022/12/12 19:37:21;;;;;;;34.40;19.20;;;;;;;-7.42;100.00;101059.91;10273412;28;20054;-87
2022/12/12 19:42:22;;;;;;;88.43;30.23;;;;;;;-7.37;100.00;101056.31;10277285;28;20509;-86
2022/12/12 19:47:22;;;;;;;38.20;23.33;;;;;;;-7.37;100.00;101044.47;10278739;28;20125;-83
2022/12/12 19:52:23;;;;;;;27.57;17.00;;;;;;;-7.46;100.00;101052.63;10275952;28;20049;-86
2022/12/12 19:57:25;;;;;;;32.43;18.43;;;;;;;-7.47;100.00;101049.16;10282789;28;20117;-84
2022/12/12 20:02:25;;;;;;;27.17;18.27;;;;;;;-7.49;100.00;101048.06;10283505;28;20043;-82
2022/12/12 20:07:26;;;;;;;22.27;14.90;;;;;;;-7.67;100.00;101047.66;10285184;28;20459;-82
2022/12/12 20:12:26;;;;;;;31.90;18.17;;;;;;;-7.63;100.00;101053.09;10284175;28;20044;-82
2022/12/12 20:17:27;;;;;;;37.57;13.53;;;;;;;-7.71;100.00;101050.53;10279395;28;20479;-81
2022/12/12 20:22:27;;;;;;;33.87;20.50;;;;;;;-7.65;100.00;101049.47;10282599;28;20047;-82
2022/12/12 20:27:28;;;;;;;34.13;20.53;;;;;;;-7.69;100.00;101050.75;10266303;28;20035;-81
2022/12/12 20:32:29;;;;;;;35.15;20.05;;;;;;;-7.73;100.00;101058.72;10282718;28;20491;-82
2022/12/12 20:37:30;;;;;;;32.93;19.17;;;;;;;-7.74;100.00;101059.44;10281940;28;20050;-82
2022/12/12 20:42:30;;;;;;;35.57;16.37;;;;;;;-7.81;100.00;101052.66;10248314;28;20467;-81
2022/12/12 20:47:31;;;;;;;37.03;22.33;;;;;;;-7.84;100.00;101053.22;10276028;28;20115;-81
2022/12/12 20:52:32;;;;;;;47.57;23.07;;;;;;;-7.74;100.00;101060.31;10264720;28;20101;-80
2022/12/12 20:57:32;;;;;;;38.35;20.80;;;;;;;-7.69;100.00;101056.72;10277657;28;20098;-82
2022/12/12 21:02:33;;;;;;;54.63;33.87;;;;;;;-7.78;100.00;101064.84;10281758;28;20047;-80
2022/12/12 21:07:34;;;;;;;38.60;24.80;;;;;;;-7.87;100.00;101054.44;10282282;28;20133;-82
2022/12/12 21:12:34;;;;;;;31.73;20.53;;;;;;;-7.98;100.00;101054.03;10281908;28;20450;-82
2022/12/12 21:17:35;;;;;;;37.13;21.70;;;;;;;-7.96;100.00;101054.25;10281030;28;20146;-82
2022/12/12 21:22:35;;;;;;;41.70;21.80;;;;;;;-8.01;100.00;101066.34;10257531;28;20071;-81
2022/12/12 21:27:36;;;;;;;37.60;21.03;;;;;;;-8.03;100.00;101064.38;10272739;28;20388;-81
2022/12/12 21:32:39;;;;;;;47.07;21.43;;;;;;;-8.03;100.00;101059.28;10272682;28;20096;-82
2022/12/12 21:37:39;;;;;;;31.40;20.03;;;;;;;-7.87;100.00;101067.16;10279100;28;20044;-80
2022/12/12 21:42:40;;;;;;;38.63;22.70;;;;;;;-7.91;100.00;101064.97;10311086;28;20034;-83
2022/12/12 21:47:40;;;;;;;25.33;17.97;;;;;;;-7.97;100.00;101065.13;10317415;28;20133;-81
2022/12/12 21:52:42;;;;;;;46.03;25.03;;;;;;;-8.01;100.00;101058.72;10282774;28;20125;-81
2022/12/12 21:57:43;;;;;;;33.80;20.47;;;;;;;-8.11;100.00;101053.22;10275119;28;20038;-82
2022/12/12 22:02:44;;;;;;;36.60;24.90;;;;;;;-8.09;100.00;101051.78;10278980;28;20034;-82
2022/12/12 22:07:44;;;;;;;43.40;25.73;;;;;;;-8.19;100.00;101043.75;10260913;28;20058;-82
2022/12/12 22:12:48;;;;;;;38.77;22.43;;;;;;;-8.22;100.00;101044.28;10254836;28;20357;-82
2022/12/12 22:17:49;;;;;;;41.73;23.47;;;;;;;-8.26;100.00;101050.59;10273116;28;20113;-82
2022/12/12 22:22:49;;;;;;;37.75;23.15;;;;;;;-8.33;100.00;101044.59;10280435;28;20039;-82
2022/12/12 22:27:50;;;;;;;39.80;24.27;;;;;;;-8.44;100.00;101049.22;10262305;28;20063;-83
2022/12/12 22:32:51;;;;;;;41.13;24.33;;;;;;;-8.47;100.00;101051.38;10278991;28;20082;-82
2022/12/12 22:37:51;;;;;;;46.73;24.43;;;;;;;-8.41;100.00;101052.16;10277586;28;20063;-82
2022/12/12 22:42:52;;;;;;;41.20;26.63;;;;;;;-8.33;100.00;101059.81;10262632;28;20057;-82